Le Ponant — FGZZ — position and weather

sailwx.info

Track history (hours):
 
Tides and Currents Weather Stations Pressure Air Temp Water Temp Dewpoint Dewpoint Depression Visibility Wind Speed Wind Dir Waves Ship Positions

Le Ponant

Operator: Compangy des Iles du Ponant

Last reported at 2016-Apr-28 03:33 UTC. Time now 2016-May-03 06:46 UTC.
Position N 43°33' E 007°11'.

Length 84 m; draft 4.2 m.

Type: Passenger vessel. MMSI: 227186000.

Date/timePositionNaut miles runAvg speedWind from/ knotsBaromVisibWave heightAir tempDewpointWater temp
2016-Apr-28 03:33N 43°33' E 007°11'83 1.8
2016-Apr-26 05:29N 43°15' E 005°20'35 6.7
2016-Apr-26 00:14N 43°06' E 004°33'  
2016-Apr-23 02:30N 40°41' E 002°14'1210.2
2016-Apr-23 01:20N 40°29' E 002°15'810.3
2016-Apr-23 00:33N 40°21' E 002°15'1110.5
2016-Apr-22 23:32N 40°10' E 002°15'1010.5
2016-Apr-22 22:33N 39°60' E 002°16'32 9.7
2016-Apr-22 19:15N 39°29' E 002°24'6 9.2
2016-Apr-22 18:33N 39°26' E 002°32'8 7.9
2016-Apr-22 17:33N 39°32' E 002°38'1 1.2
2016-Apr-22 16:33N 39°33' E 002°38'0 0.0
2016-Apr-22 15:33N 39°33' E 002°38'0 0.0
2016-Apr-22 14:33N 39°33' E 002°38'0 0.0
2016-Apr-22 13:33N 39°33' E 002°38'0 0.0
2016-Apr-22 12:33N 39°33' E 002°38'0 0.0
2016-Apr-22 11:33N 39°33' E 002°38'0 0.0
2016-Apr-22 10:33N 39°33' E 002°38'0 0.0
2016-Apr-22 09:33N 39°33' E 002°38'0 0.0
2016-Apr-22 08:33N 39°33' E 002°38'0 0.0
2016-Apr-22 07:33N 39°33' E 002°38'2 2.3
2016-Apr-22 06:33N 39°31' E 002°38'8 8.0
2016-Apr-22 05:31N 39°26' E 002°29'10 9.7
2016-Apr-22 04:32N 39°26' E 002°17'  
Track history (hours):
 
Tides and Currents Weather Stations Pressure Air Temp Water Temp Dewpoint Dewpoint Depression Visibility Wind Speed Wind Dir Waves Ship Positions

Le Ponant

Operator: Compangy des Iles du Ponant

Last reported at 2016-Apr-28 03:33 UTC. Time now 2016-May-03 06:46 UTC.
Position N 43°33' E 007°11'.

Length 84 m; draft 4.2 m.

Type: Passenger vessel. MMSI: 227186000.

Date/timePositionNaut miles runAvg speedWind from/ knotsBaromVisibWave heightAir tempDewpointWater temp
2016-Apr-28 03:33N 43°33' E 007°11'83 1.8
2016-Apr-26 05:29N 43°15' E 005°20'35 6.7
2016-Apr-26 00:14N 43°06' E 004°33'  
2016-Apr-23 02:30N 40°41' E 002°14'1210.2
2016-Apr-23 01:20N 40°29' E 002°15'810.3
2016-Apr-23 00:33N 40°21' E 002°15'1110.5
2016-Apr-22 23:32N 40°10' E 002°15'1010.5
2016-Apr-22 22:33N 39°60' E 002°16'32 9.7
2016-Apr-22 19:15N 39°29' E 002°24'6 9.2
2016-Apr-22 18:33N 39°26' E 002°32'8 7.9
2016-Apr-22 17:33N 39°32' E 002°38'1 1.2
2016-Apr-22 16:33N 39°33' E 002°38'0 0.0
2016-Apr-22 15:33N 39°33' E 002°38'0 0.0
2016-Apr-22 14:33N 39°33' E 002°38'0 0.0
2016-Apr-22 13:33N 39°33' E 002°38'0 0.0
2016-Apr-22 12:33N 39°33' E 002°38'0 0.0
2016-Apr-22 11:33N 39°33' E 002°38'0 0.0
2016-Apr-22 10:33N 39°33' E 002°38'0 0.0
2016-Apr-22 09:33N 39°33' E 002°38'0 0.0
2016-Apr-22 08:33N 39°33' E 002°38'0 0.0
2016-Apr-22 07:33N 39°33' E 002°38'2 2.3
2016-Apr-22 06:33N 39°31' E 002°38'8 8.0
2016-Apr-22 05:31N 39°26' E 002°29'10 9.7
2016-Apr-22 04:32N 39°26' E 002°17'  

Dump ship's entire track history